Albertville, Minnesota
Current Conditions -  °F | °C
As of 6:15 AM on Friday 24 Oct 2014 (Local Time) from KCFE Reporting Station
Clear Clear  
Wind Chill: 48°   Ceiling: Unl
Heat Index: 48°   Visibility: 10mi
Dew Point: 41°   Wind: 3mph
Humidity: 77%   Direction: 120°ESE
Pressure: 29.89"   Gusts: NA
Location:  45.24°N, 93.65°W
Report Text: KCFE 241115Z AUTO 12003KT 10SM CLR 09/05 A2989 RMK AO2 T00900051
Loading
Personal Weather Stations






























Interactive Weather Map
Tropical Storm Tracking
New forecast layout! Learn more

10-Day Weather Forecast

Advertisements
Track Severe Weather on mobile